FYT7229 LIRF-LEBL
Flight info
| Callsign | FYT7229 |
|---|---|
| Flight time | 1h 25m |
| Altitude | 32000 |
| Route | DCT ESINO DCT ABIDU DCT EPIKU DCT GINOX/N0449F320 DCT KIFMI DCT ELVOP DCT MUREN DCT CHELY DCT VERSO DCT |
| Aircraft | A321/M-SDE1FGHIJ1RWXY/S |
Departure
| Time | 2026-05-04 15:16 |
|---|---|
| Airport | Rome–Fiumicino Leonardo da Vinci International Airport (LIRF) |
Arrival
| Time | 2026-05-04 16:41 |
|---|---|
| Airport | Josep Tarradellas Barcelona-El Prat Airport (LEBL) |
| Time | Latitude | Longitude | Altitude | Speed | Heading |
|---|---|---|---|---|---|
| 2026-05-04 14:39 | 41.80069 | 12.26214 | 16 ft | 0 kts | 205° |
| 2026-05-04 15:01 | 41.80077 | 12.26219 | 16 ft | 2 kts | 205° |
| 2026-05-04 15:01 | 41.80090 | 12.26227 | 16 ft | 2 kts | 205° |
| 2026-05-04 15:02 | 41.80104 | 12.26236 | 16 ft | 2 kts | 205° |
| 2026-05-04 15:02 | 41.80118 | 12.26244 | 16 ft | 1 kts | 205° |
| 2026-05-04 15:02 | 41.80125 | 12.26249 | 16 ft | 1 kts | 245° |
| 2026-05-04 15:02 | 41.80131 | 12.26257 | 16 ft | 1 kts | 73° |
| 2026-05-04 15:03 | 41.80131 | 12.26255 | 16 ft | 0 kts | 99° |
| 2026-05-04 15:03 | 41.80133 | 12.26249 | 16 ft | 0 kts | 161° |
| 2026-05-04 15:03 | 41.80137 | 12.26249 | 16 ft | 0 kts | 221° |
| 2026-05-04 15:03 | 41.80139 | 12.26253 | 16 ft | 0 kts | 282° |
| 2026-05-04 15:04 | 41.80138 | 12.26258 | 16 ft | 0 kts | 297° |
| 2026-05-04 15:04 | 41.80135 | 12.26264 | 16 ft | 0 kts | 315° |
| 2026-05-04 15:04 | 41.80135 | 12.26254 | 16 ft | 2 kts | 264° |
| 2026-05-04 15:04 | 41.80133 | 12.26234 | 16 ft | 2 kts | 262° |
| 2026-05-04 15:05 | 41.80142 | 12.26207 | 16 ft | 3 kts | 295° |
| 2026-05-04 15:05 | 41.80146 | 12.26196 | 16 ft | 0 kts | 294° |
| 2026-05-04 15:05 | 41.80141 | 12.26212 | 16 ft | 2 kts | 292° |
| 2026-05-04 15:05 | 41.80135 | 12.26229 | 16 ft | 1 kts | 293° |
| 2026-05-04 15:06 | 41.80133 | 12.26234 | 16 ft | 0 kts | 294° |
| 2026-05-04 15:10 | 41.80141 | 12.26211 | 16 ft | 4 kts | 294° |
| 2026-05-04 15:10 | 41.80166 | 12.26141 | 16 ft | 11 kts | 296° |
| 2026-05-04 15:10 | 41.80300 | 12.26088 | 16 ft | 12 kts | 25° |
| 2026-05-04 15:11 | 41.80383 | 12.26141 | 16 ft | 13 kts | 25° |
| 2026-05-04 15:11 | 41.80471 | 12.26184 | 16 ft | 13 kts | 19° |
| 2026-05-04 15:11 | 41.80534 | 12.26277 | 16 ft | 14 kts | 68° |
| 2026-05-04 15:11 | 41.80572 | 12.26404 | 15 ft | 15 kts | 70° |
| 2026-05-04 15:12 | 41.80608 | 12.26539 | 15 ft | 15 kts | 70° |
| 2026-05-04 15:12 | 41.80647 | 12.26676 | 14 ft | 16 kts | 69° |
| 2026-05-04 15:12 | 41.80686 | 12.26820 | 14 ft | 16 kts | 69° |
| 2026-05-04 15:12 | 41.80726 | 12.26969 | 13 ft | 17 kts | 69° |
| 2026-05-04 15:13 | 41.80822 | 12.27030 | 13 ft | 17 kts | 346° |
| 2026-05-04 15:13 | 41.80861 | 12.27013 | 13 ft | 0 kts | 340° |
| 2026-05-04 15:13 | 41.80864 | 12.27012 | 13 ft | 2 kts | 340° |
| 2026-05-04 15:13 | 41.80894 | 12.26997 | 13 ft | 6 kts | 340° |
| 2026-05-04 15:14 | 41.80946 | 12.26960 | 13 ft | 10 kts | 301° |
| 2026-05-04 15:14 | 41.80947 | 12.26896 | 13 ft | 0 kts | 256° |
| 2026-05-04 15:15 | 41.80938 | 12.26853 | 13 ft | 19 kts | 251° |
| 2026-05-04 15:15 | 41.80799 | 12.26364 | 15 ft | 91 kts | 249° |
| 2026-05-04 15:16 | 41.80088 | 12.23803 | 142 ft | 186 kts | 248° |
| 2026-05-04 15:16 | 41.79665 | 12.22194 | 823 ft | 185 kts | 249° |
| 2026-05-04 15:16 | 41.79214 | 12.18889 | 2288 ft | 181 kts | 265° |
| 2026-05-04 15:17 | 41.79190 | 12.17218 | 2845 ft | 182 kts | 265° |
| 2026-05-04 15:17 | 41.78396 | 12.14096 | 3646 ft | 193 kts | 215° |
| 2026-05-04 15:17 | 41.77227 | 12.13084 | 3979 ft | 209 kts | 210° |
| 2026-05-04 15:18 | 41.75944 | 12.11978 | 4281 ft | 229 kts | 211° |
| 2026-05-04 15:18 | 41.74554 | 12.10766 | 4671 ft | 247 kts | 211° |
| 2026-05-04 15:18 | 41.73075 | 12.09472 | 5160 ft | 259 kts | 211° |
| 2026-05-04 15:19 | 41.70049 | 12.06828 | 6614 ft | 264 kts | 211° |
| 2026-05-04 15:19 | 41.68519 | 12.05498 | 7342 ft | 266 kts | 212° |
| 2026-05-04 15:19 | 41.65390 | 12.02781 | 8723 ft | 272 kts | 213° |
| 2026-05-04 15:20 | 41.63796 | 12.01397 | 9385 ft | 275 kts | 214° |
| 2026-05-04 15:20 | 41.62206 | 12.00014 | 10036 ft | 278 kts | 215° |
| 2026-05-04 15:20 | 41.60565 | 11.98586 | 10585 ft | 285 kts | 215° |
| 2026-05-04 15:20 | 41.58854 | 11.97092 | 10886 ft | 301 kts | 215° |
| 2026-05-04 15:21 | 41.57055 | 11.95525 | 11163 ft | 317 kts | 215° |
| 2026-05-04 15:21 | 41.55178 | 11.93894 | 11498 ft | 329 kts | 215° |
| 2026-05-04 15:21 | 41.51310 | 11.90547 | 12675 ft | 335 kts | 215° |
| 2026-05-04 15:22 | 41.49346 | 11.88852 | 13276 ft | 338 kts | 216° |
| 2026-05-04 15:22 | 41.47374 | 11.87148 | 13858 ft | 340 kts | 216° |
| 2026-05-04 15:22 | 41.43406 | 11.83721 | 14958 ft | 346 kts | 216° |
| 2026-05-04 15:23 | 41.41374 | 11.81968 | 15484 ft | 349 kts | 216° |
| 2026-05-04 15:23 | 41.39488 | 11.79986 | 15971 ft | 349 kts | 228° |
| 2026-05-04 15:23 | 41.38031 | 11.77403 | 16477 ft | 349 kts | 242° |
| 2026-05-04 15:23 | 41.37070 | 11.74459 | 16931 ft | 351 kts | 251° |
| 2026-05-04 15:24 | 41.35418 | 11.68334 | 17088 ft | 352 kts | 251° |
| 2026-05-04 15:24 | 41.33769 | 11.62191 | 17090 ft | 352 kts | 251° |
| 2026-05-04 15:25 | 41.32951 | 11.59171 | 17091 ft | 352 kts | 251° |
| 2026-05-04 15:25 | 41.32116 | 11.56097 | 17089 ft | 351 kts | 251° |
| 2026-05-04 15:25 | 41.31290 | 11.53064 | 17092 ft | 351 kts | 251° |
| 2026-05-04 15:26 | 41.29628 | 11.46982 | 17087 ft | 351 kts | 251° |
| 2026-05-04 15:26 | 41.28790 | 11.43923 | 17087 ft | 351 kts | 251° |
| 2026-05-04 15:26 | 41.27129 | 11.37874 | 17083 ft | 351 kts | 251° |
| 2026-05-04 15:27 | 41.26290 | 11.34823 | 17081 ft | 351 kts | 250° |
| 2026-05-04 15:27 | 41.24617 | 11.28747 | 17072 ft | 350 kts | 250° |
| 2026-05-04 15:28 | 41.22943 | 11.22684 | 17074 ft | 350 kts | 250° |
| 2026-05-04 15:28 | 41.22111 | 11.19675 | 17070 ft | 350 kts | 250° |
| 2026-05-04 15:28 | 41.20423 | 11.13592 | 17069 ft | 351 kts | 250° |
| 2026-05-04 15:29 | 41.19584 | 11.10572 | 17071 ft | 352 kts | 250° |
| 2026-05-04 15:30 | 41.16180 | 10.98349 | 18053 ft | 357 kts | 250° |
| 2026-05-04 15:30 | 41.13570 | 10.89023 | 19475 ft | 364 kts | 250° |
| 2026-05-04 15:31 | 41.11800 | 10.82715 | 20385 ft | 368 kts | 251° |
| 2026-05-04 15:31 | 41.10920 | 10.79586 | 20836 ft | 369 kts | 251° |
| 2026-05-04 15:32 | 41.08209 | 10.69967 | 22160 ft | 374 kts | 251° |
| 2026-05-04 15:32 | 41.06385 | 10.63508 | 22971 ft | 378 kts | 251° |
| 2026-05-04 15:33 | 41.04532 | 10.56973 | 23800 ft | 381 kts | 251° |
| 2026-05-04 15:34 | 41.01742 | 10.47166 | 25057 ft | 383 kts | 252° |
| 2026-05-04 15:34 | 41.00801 | 10.43865 | 25475 ft | 383 kts | 252° |
| 2026-05-04 15:34 | 40.99216 | 10.37138 | 26214 ft | 384 kts | 259° |
| 2026-05-04 15:35 | 40.98536 | 10.30157 | 26880 ft | 387 kts | 266° |
| 2026-05-04 15:35 | 40.98355 | 10.26618 | 27232 ft | 388 kts | 266° |
| 2026-05-04 15:35 | 40.98180 | 10.23068 | 27579 ft | 389 kts | 266° |
| 2026-05-04 15:36 | 40.97826 | 10.15911 | 28213 ft | 392 kts | 266° |
| 2026-05-04 15:36 | 40.97646 | 10.12318 | 28533 ft | 393 kts | 266° |
| 2026-05-04 15:36 | 40.97466 | 10.08714 | 28839 ft | 394 kts | 266° |
| 2026-05-04 15:37 | 40.97284 | 10.05127 | 29149 ft | 395 kts | 266° |
| 2026-05-04 15:37 | 40.97094 | 10.01456 | 29589 ft | 392 kts | 266° |
| 2026-05-04 15:37 | 40.96911 | 9.97888 | 30042 ft | 389 kts | 266° |
| 2026-05-04 15:37 | 40.96730 | 9.94349 | 30441 ft | 388 kts | 266° |
| 2026-05-04 15:38 | 40.96546 | 9.90803 | 30817 ft | 386 kts | 266° |
| 2026-05-04 15:38 | 40.96362 | 9.87288 | 31220 ft | 384 kts | 265° |
| 2026-05-04 15:38 | 40.96176 | 9.83784 | 31600 ft | 383 kts | 266° |
| 2026-05-04 15:38 | 40.95989 | 9.80264 | 31903 ft | 383 kts | 266° |
| 2026-05-04 15:39 | 40.95802 | 9.76760 | 32030 ft | 384 kts | 265° |
| 2026-05-04 15:39 | 40.95612 | 9.73226 | 32034 ft | 385 kts | 265° |
| 2026-05-04 15:40 | 40.95040 | 9.62650 | 32039 ft | 386 kts | 265° |
| 2026-05-04 15:40 | 40.94647 | 9.55556 | 32041 ft | 386 kts | 265° |
| 2026-05-04 15:41 | 40.94254 | 9.48505 | 32041 ft | 386 kts | 265° |
| 2026-05-04 15:41 | 40.93859 | 9.41438 | 32043 ft | 386 kts | 265° |
| 2026-05-04 15:42 | 40.93457 | 9.34378 | 32045 ft | 386 kts | 264° |
| 2026-05-04 15:42 | 40.93051 | 9.27329 | 32046 ft | 386 kts | 264° |
| 2026-05-04 15:43 | 40.92637 | 9.20233 | 32047 ft | 386 kts | 264° |
| 2026-05-04 15:43 | 40.92223 | 9.13155 | 32047 ft | 387 kts | 264° |
| 2026-05-04 15:44 | 40.91804 | 9.06108 | 32048 ft | 387 kts | 264° |
| 2026-05-04 15:44 | 40.91378 | 8.98995 | 32048 ft | 387 kts | 264° |
| 2026-05-04 15:45 | 40.90951 | 8.91942 | 32046 ft | 388 kts | 264° |
| 2026-05-04 15:45 | 40.90518 | 8.84860 | 32042 ft | 387 kts | 264° |
| 2026-05-04 15:46 | 40.90079 | 8.77770 | 32104 ft | 390 kts | 264° |
| 2026-05-04 15:46 | 40.89855 | 8.74186 | 32391 ft | 390 kts | 264° |
| 2026-05-04 15:46 | 40.89633 | 8.70645 | 32725 ft | 389 kts | 264° |
| 2026-05-04 15:46 | 40.89409 | 8.67086 | 32988 ft | 389 kts | 264° |
| 2026-05-04 15:47 | 40.89187 | 8.63556 | 33018 ft | 390 kts | 264° |
| 2026-05-04 15:47 | 40.88732 | 8.56465 | 33026 ft | 390 kts | 264° |
| 2026-05-04 15:48 | 40.88274 | 8.49315 | 33019 ft | 390 kts | 264° |
| 2026-05-04 15:48 | 40.87576 | 8.38611 | 33020 ft | 390 kts | 264° |
| 2026-05-04 15:49 | 40.87108 | 8.31508 | 33017 ft | 390 kts | 263° |
| 2026-05-04 15:49 | 40.86631 | 8.24361 | 33012 ft | 391 kts | 263° |
| 2026-05-04 15:50 | 40.86152 | 8.17243 | 33010 ft | 390 kts | 263° |
| 2026-05-04 15:50 | 40.85894 | 8.10060 | 33007 ft | 392 kts | 268° |
| 2026-05-04 15:51 | 40.86122 | 8.02869 | 33005 ft | 392 kts | 270° |
| 2026-05-04 15:51 | 40.86519 | 7.95703 | 33002 ft | 393 kts | 272° |
| 2026-05-04 15:52 | 40.87030 | 7.88532 | 32999 ft | 393 kts | 272° |
| 2026-05-04 15:52 | 40.87537 | 7.81339 | 32993 ft | 393 kts | 271° |
| 2026-05-04 15:53 | 40.88028 | 7.74184 | 32997 ft | 393 kts | 271° |
| 2026-05-04 15:53 | 40.88514 | 7.66991 | 32995 ft | 394 kts | 271° |
| 2026-05-04 15:54 | 40.88996 | 7.59760 | 32993 ft | 393 kts | 271° |
| 2026-05-04 15:54 | 40.89467 | 7.52607 | 32989 ft | 393 kts | 272° |
| 2026-05-04 15:55 | 40.89943 | 7.45402 | 32988 ft | 393 kts | 272° |
| 2026-05-04 15:55 | 40.90409 | 7.38221 | 32987 ft | 394 kts | 271° |
| 2026-05-04 15:56 | 40.90867 | 7.31066 | 32990 ft | 394 kts | 271° |
| 2026-05-04 15:56 | 40.91327 | 7.23853 | 32985 ft | 394 kts | 271° |
| 2026-05-04 15:57 | 40.91779 | 7.16658 | 32978 ft | 394 kts | 271° |
| 2026-05-04 15:57 | 40.92229 | 7.09443 | 32979 ft | 394 kts | 271° |
| 2026-05-04 15:58 | 40.92674 | 7.02243 | 32980 ft | 394 kts | 270° |
| 2026-05-04 15:58 | 40.93112 | 6.95047 | 32977 ft | 393 kts | 271° |
| 2026-05-04 15:59 | 40.93547 | 6.87856 | 32974 ft | 393 kts | 271° |
| 2026-05-04 15:59 | 40.93978 | 6.80655 | 32971 ft | 394 kts | 271° |
| 2026-05-04 16:00 | 40.94403 | 6.73474 | 32967 ft | 393 kts | 271° |
| 2026-05-04 16:00 | 40.94825 | 6.66301 | 32963 ft | 393 kts | 270° |
| 2026-05-04 16:01 | 40.95243 | 6.59094 | 32962 ft | 393 kts | 270° |
| 2026-05-04 16:01 | 40.95651 | 6.51939 | 32960 ft | 393 kts | 270° |
| 2026-05-04 16:02 | 40.96058 | 6.44752 | 32955 ft | 394 kts | 271° |
| 2026-05-04 16:03 | 40.96661 | 6.33962 | 32946 ft | 392 kts | 270° |
| 2026-05-04 16:03 | 40.97057 | 6.26759 | 32943 ft | 392 kts | 270° |
| 2026-05-04 16:04 | 40.97449 | 6.19585 | 32941 ft | 392 kts | 270° |
| 2026-05-04 16:04 | 40.98028 | 6.08794 | 32939 ft | 392 kts | 270° |
| 2026-05-04 16:05 | 40.98411 | 6.01577 | 32937 ft | 393 kts | 270° |
| 2026-05-04 16:06 | 40.98972 | 5.90815 | 32940 ft | 392 kts | 269° |
| 2026-05-04 16:07 | 40.99703 | 5.76461 | 32943 ft | 392 kts | 270° |
| 2026-05-04 16:08 | 41.00420 | 5.62039 | 32952 ft | 392 kts | 269° |
| 2026-05-04 16:09 | 41.01287 | 5.44068 | 32953 ft | 393 kts | 269° |
| 2026-05-04 16:10 | 41.02016 | 5.29660 | 32932 ft | 393 kts | 269° |
| 2026-05-04 16:11 | 41.02764 | 5.15340 | 32922 ft | 392 kts | 268° |
| 2026-05-04 16:12 | 41.03307 | 5.04590 | 32245 ft | 388 kts | 268° |
| 2026-05-04 16:12 | 41.03832 | 4.93992 | 31399 ft | 385 kts | 268° |
| 2026-05-04 16:13 | 41.04175 | 4.86925 | 30851 ft | 387 kts | 268° |
| 2026-05-04 16:13 | 41.04518 | 4.79835 | 30307 ft | 390 kts | 268° |
| 2026-05-04 16:14 | 41.05139 | 4.72692 | 29797 ft | 395 kts | 271° |
| 2026-05-04 16:14 | 41.05886 | 4.65463 | 29276 ft | 397 kts | 272° |
| 2026-05-04 16:15 | 41.07058 | 4.54676 | 28523 ft | 398 kts | 272° |
| 2026-05-04 16:16 | 41.07841 | 4.47420 | 28023 ft | 396 kts | 273° |
| 2026-05-04 16:16 | 41.08995 | 4.36669 | 27261 ft | 393 kts | 273° |
| 2026-05-04 16:17 | 41.09755 | 4.29507 | 26736 ft | 390 kts | 273° |
| 2026-05-04 16:18 | 41.10870 | 4.18908 | 25670 ft | 386 kts | 273° |
| 2026-05-04 16:18 | 41.11235 | 4.15426 | 25215 ft | 383 kts | 274° |
| 2026-05-04 16:19 | 41.12304 | 4.05123 | 23777 ft | 373 kts | 274° |
| 2026-05-04 16:19 | 41.12998 | 3.98375 | 22811 ft | 367 kts | 275° |
| 2026-05-04 16:20 | 41.14014 | 3.88473 | 21387 ft | 358 kts | 275° |
| 2026-05-04 16:20 | 41.14669 | 3.82019 | 20459 ft | 354 kts | 275° |
| 2026-05-04 16:21 | 41.15630 | 3.72507 | 19852 ft | 351 kts | 275° |
| 2026-05-04 16:22 | 41.16278 | 3.66073 | 19543 ft | 354 kts | 275° |
| 2026-05-04 16:22 | 41.17232 | 3.56508 | 18043 ft | 348 kts | 275° |
| 2026-05-04 16:23 | 41.18169 | 3.47047 | 16688 ft | 341 kts | 274° |
| 2026-05-04 16:24 | 41.19363 | 3.34799 | 14938 ft | 332 kts | 274° |
| 2026-05-04 16:25 | 41.19949 | 3.28733 | 14071 ft | 328 kts | 274° |
| 2026-05-04 16:26 | 41.21077 | 3.16960 | 12361 ft | 319 kts | 274° |
| 2026-05-04 16:26 | 41.21851 | 3.08313 | 11093 ft | 312 kts | 273° |
| 2026-05-04 16:27 | 41.22342 | 3.02744 | 10288 ft | 298 kts | 273° |
| 2026-05-04 16:28 | 41.23009 | 2.95186 | 9909 ft | 265 kts | 272° |
| 2026-05-04 16:28 | 41.23665 | 2.87598 | 9855 ft | 279 kts | 273° |
| 2026-05-04 16:29 | 41.26246 | 2.78313 | 8302 ft | 291 kts | 327° |
| 2026-05-04 16:30 | 41.32285 | 2.77708 | 7097 ft | 291 kts | 2° |
| 2026-05-04 16:31 | 41.36212 | 2.77543 | 6319 ft | 276 kts | 331° |
| 2026-05-04 16:31 | 41.38191 | 2.71608 | 5403 ft | 236 kts | 265° |
| 2026-05-04 16:32 | 41.38055 | 2.65083 | 4693 ft | 235 kts | 267° |
| 2026-05-04 16:33 | 41.38042 | 2.60809 | 4175 ft | 225 kts | 268° |
| 2026-05-04 16:33 | 41.38050 | 2.56645 | 3699 ft | 224 kts | 268° |
| 2026-05-04 16:34 | 41.38062 | 2.52544 | 3252 ft | 223 kts | 269° |
| 2026-05-04 16:34 | 41.38070 | 2.50497 | 3062 ft | 216 kts | 269° |
| 2026-05-04 16:35 | 41.38089 | 2.44589 | 2681 ft | 212 kts | 269° |
| 2026-05-04 16:35 | 41.38106 | 2.38818 | 2277 ft | 201 kts | 269° |
| 2026-05-04 16:36 | 41.38111 | 2.36980 | 2271 ft | 201 kts | 269° |
| 2026-05-04 16:36 | 41.38019 | 2.33278 | 2263 ft | 199 kts | 260° |
| 2026-05-04 16:37 | 41.37192 | 2.29764 | 2262 ft | 200 kts | 248° |
| 2026-05-04 16:37 | 41.36649 | 2.28046 | 2258 ft | 200 kts | 246° |
| 2026-05-04 16:37 | 41.35551 | 2.24830 | 2273 ft | 181 kts | 245° |
| 2026-05-04 16:38 | 41.34511 | 2.21828 | 1875 ft | 178 kts | 245° |
| 2026-05-04 16:39 | 41.33105 | 2.17747 | 1183 ft | 144 kts | 245° |
| 2026-05-04 16:39 | 41.32278 | 2.15333 | 835 ft | 143 kts | 244° |
| 2026-05-04 16:40 | 41.31448 | 2.12920 | 459 ft | 142 kts | 244° |
| 2026-05-04 16:40 | 41.30615 | 2.10508 | 77 ft | 141 kts | 246° |
| 2026-05-04 16:41 | 41.29928 | 2.08486 | 20 ft | 78 kts | 245° |
| 2026-05-04 16:41 | 41.29616 | 2.07844 | 20 ft | 0 kts | 211° |
| 2026-05-04 16:42 | 41.29608 | 2.07838 | 20 ft | 1 kts | 211° |
| 2026-05-04 16:43 | 41.29517 | 2.07764 | 20 ft | 10 kts | 213° |
| 2026-05-04 16:43 | 41.29433 | 2.07612 | 19 ft | 15 kts | 250° |
| 2026-05-04 16:43 | 41.29389 | 2.07461 | 20 ft | 19 kts | 247° |
| 2026-05-04 16:44 | 41.29219 | 2.07349 | 20 ft | 1 kts | 206° |
| 2026-05-04 16:45 | 41.29179 | 2.07355 | 19 ft | 4 kts | 163° |
| 2026-05-04 16:46 | 41.29145 | 2.07374 | 19 ft | 0 kts | 155° |